sensor_id;sensor_type;location;lat;lon;timestamp;temperature;humidity
41630;DHT22;27322;49.488;8.480;2022-07-29T00:02:13;22.80;68.90
41630;DHT22;27322;49.488;8.480;2022-07-29T00:04:39;22.80;68.80
41630;DHT22;27322;49.488;8.480;2022-07-29T00:07:05;22.70;68.60
41630;DHT22;27322;49.488;8.480;2022-07-29T00:09:31;22.70;68.60
41630;DHT22;27322;49.488;8.480;2022-07-29T00:11:59;22.60;68.70
41630;DHT22;27322;49.488;8.480;2022-07-29T00:14:26;22.60;69.10
41630;DHT22;27322;49.488;8.480;2022-07-29T00:16:52;22.60;69.20
41630;DHT22;27322;49.488;8.480;2022-07-29T00:19:18;22.50;69.20
41630;DHT22;27322;49.488;8.480;2022-07-29T00:21:43;22.50;69.90
41630;DHT22;27322;49.488;8.480;2022-07-29T00:24:09;22.50;69.30
41630;DHT22;27322;49.488;8.480;2022-07-29T00:26:35;22.50;69.40
41630;DHT22;27322;49.488;8.480;2022-07-29T00:29:02;22.50;69.70
41630;DHT22;27322;49.488;8.480;2022-07-29T00:31:28;22.50;69.80
41630;DHT22;27322;49.488;8.480;2022-07-29T00:33:53;22.50;69.80
41630;DHT22;27322;49.488;8.480;2022-07-29T00:36:19;22.50;69.90
41630;DHT22;27322;49.488;8.480;2022-07-29T00:38:47;22.50;70.10
41630;DHT22;27322;49.488;8.480;2022-07-29T00:41:13;22.50;70.40
41630;DHT22;27322;49.488;8.480;2022-07-29T00:43:39;22.50;70.70
41630;DHT22;27322;49.488;8.480;2022-07-29T00:46:04;22.50;70.90
41630;DHT22;27322;49.488;8.480;2022-07-29T00:48:30;22.50;71.20
41630;DHT22;27322;49.488;8.480;2022-07-29T00:50:57;22.40;71.50
41630;DHT22;27322;49.488;8.480;2022-07-29T00:53:24;22.40;72.20
41630;DHT22;27322;49.488;8.480;2022-07-29T00:55:50;22.40;72.10
41630;DHT22;27322;49.488;8.480;2022-07-29T00:58:16;22.40;72.30
41630;DHT22;27322;49.488;8.480;2022-07-29T01:00:42;22.40;72.80
41630;DHT22;27322;49.488;8.480;2022-07-29T01:03:08;22.40;72.80
41630;DHT22;27322;49.488;8.480;2022-07-29T01:05:34;22.40;72.50
41630;DHT22;27322;49.488;8.480;2022-07-29T01:08:01;22.40;72.10
41630;DHT22;27322;49.488;8.480;2022-07-29T01:10:27;22.40;72.10
41630;DHT22;27322;49.488;8.480;2022-07-29T01:12:55;22.50;72.00
41630;DHT22;27322;49.488;8.480;2022-07-29T01:15:22;22.50;71.50
41630;DHT22;27322;49.488;8.480;2022-07-29T01:25:54;22.30;70.70
41630;DHT22;27322;49.488;8.480;2022-07-29T01:31:25;22.30;70.20
41630;DHT22;27322;49.488;8.480;2022-07-29T01:33:58;22.30;70.30
41630;DHT22;27322;49.488;8.480;2022-07-29T01:36:43;22.20;70.10
41630;DHT22;27322;49.488;8.480;2022-07-29T01:39:14;22.20;70.00
41630;DHT22;27322;49.488;8.480;2022-07-29T01:41:49;22.20;69.20
41630;DHT22;27322;49.488;8.480;2022-07-29T01:44:20;22.20;69.10
41630;DHT22;27322;49.488;8.480;2022-07-29T01:46:55;22.20;69.30
41630;DHT22;27322;49.488;8.480;2022-07-29T01:49:25;22.10;69.40
41630;DHT22;27322;49.488;8.480;2022-07-29T01:52:00;22.10;69.80
41630;DHT22;27322;49.488;8.480;2022-07-29T01:54:46;22.00;69.50
41630;DHT22;27322;49.488;8.480;2022-07-29T01:57:15;22.00;69.50
41630;DHT22;27322;49.488;8.480;2022-07-29T01:59:46;21.90;69.60
41630;DHT22;27322;49.488;8.480;2022-07-29T02:02:14;21.90;69.80
41630;DHT22;27322;49.488;8.480;2022-07-29T02:04:42;21.90;69.90
41630;DHT22;27322;49.488;8.480;2022-07-29T02:07:13;21.80;69.80
41630;DHT22;27322;49.488;8.480;2022-07-29T02:09:41;21.70;70.00
41630;DHT22;27322;49.488;8.480;2022-07-29T02:12:07;21.70;70.20
41630;DHT22;27322;49.488;8.480;2022-07-29T02:14:38;21.70;70.20
41630;DHT22;27322;49.488;8.480;2022-07-29T02:17:04;21.70;70.50
41630;DHT22;27322;49.488;8.480;2022-07-29T02:19:32;21.70;70.30
41630;DHT22;27322;49.488;8.480;2022-07-29T02:21:58;21.60;70.00
41630;DHT22;27322;49.488;8.480;2022-07-29T02:24:25;21.60;70.40
41630;DHT22;27322;49.488;8.480;2022-07-29T02:26:54;21.60;69.50
41630;DHT22;27322;49.488;8.480;2022-07-29T02:29:22;21.60;69.90
41630;DHT22;27322;49.488;8.480;2022-07-29T02:31:49;21.60;70.00
41630;DHT22;27322;49.488;8.480;2022-07-29T02:34:17;21.50;69.70
41630;DHT22;27322;49.488;8.480;2022-07-29T02:36:44;21.50;69.60
41630;DHT22;27322;49.488;8.480;2022-07-29T02:39:12;21.40;69.90
41630;DHT22;27322;49.488;8.480;2022-07-29T02:41:49;21.40;70.00
41630;DHT22;27322;49.488;8.480;2022-07-29T02:44:23;21.40;70.10
41630;DHT22;27322;49.488;8.480;2022-07-29T02:49:43;21.40;70.60
41630;DHT22;27322;49.488;8.480;2022-07-29T02:52:16;21.30;70.40
41630;DHT22;27322;49.488;8.480;2022-07-29T02:54:48;21.30;70.40
41630;DHT22;27322;49.488;8.480;2022-07-29T03:00:15;21.30;70.60
41630;DHT22;27322;49.488;8.480;2022-07-29T03:02:44;21.20;70.70
41630;DHT22;27322;49.488;8.480;2022-07-29T03:05:17;21.20;70.50
41630;DHT22;27322;49.488;8.480;2022-07-29T03:07:47;21.20;70.90
41630;DHT22;27322;49.488;8.480;2022-07-29T03:10:15;21.20;71.00
41630;DHT22;27322;49.488;8.480;2022-07-29T03:12:41;21.20;71.10
41630;DHT22;27322;49.488;8.480;2022-07-29T03:15:08;21.20;71.30
41630;DHT22;27322;49.488;8.480;2022-07-29T03:17:35;21.10;71.40
41630;DHT22;27322;49.488;8.480;2022-07-29T03:20:02;21.10;71.30
41630;DHT22;27322;49.488;8.480;2022-07-29T03:22:28;21.10;71.50
41630;DHT22;27322;49.488;8.480;2022-07-29T03:24:54;21.00;71.80
41630;DHT22;27322;49.488;8.480;2022-07-29T03:27:20;21.00;72.20
41630;DHT22;27322;49.488;8.480;2022-07-29T03:29:46;20.90;72.30
41630;DHT22;27322;49.488;8.480;2022-07-29T03:32:11;20.90;72.60
41630;DHT22;27322;49.488;8.480;2022-07-29T03:34:37;20.90;72.70
41630;DHT22;27322;49.488;8.480;2022-07-29T03:37:04;20.90;72.70
41630;DHT22;27322;49.488;8.480;2022-07-29T03:39:36;20.80;72.80
41630;DHT22;27322;49.488;8.480;2022-07-29T03:42:04;20.90;72.90
41630;DHT22;27322;49.488;8.480;2022-07-29T03:44:32;20.80;73.00
41630;DHT22;27322;49.488;8.480;2022-07-29T03:46:59;20.80;73.90
41630;DHT22;27322;49.488;8.480;2022-07-29T03:49:27;20.80;74.00
41630;DHT22;27322;49.488;8.480;2022-07-29T03:51:55;20.80;73.90
41630;DHT22;27322;49.488;8.480;2022-07-29T03:54:20;20.90;73.90
41630;DHT22;27322;49.488;8.480;2022-07-29T03:56:48;20.90;74.20
41630;DHT22;27322;49.488;8.480;2022-07-29T03:59:16;20.90;74.10
41630;DHT22;27322;49.488;8.480;2022-07-29T04:01:43;20.80;74.60
41630;DHT22;27322;49.488;8.480;2022-07-29T04:04:10;20.70;74.70
41630;DHT22;27322;49.488;8.480;2022-07-29T04:06:43;20.70;74.90
41630;DHT22;27322;49.488;8.480;2022-07-29T04:09:09;20.70;75.20
41630;DHT22;27322;49.488;8.480;2022-07-29T04:11:36;20.60;75.60
41630;DHT22;27322;49.488;8.480;2022-07-29T04:14:02;20.60;76.20
41630;DHT22;27322;49.488;8.480;2022-07-29T04:16:27;20.70;76.20
41630;DHT22;27322;49.488;8.480;2022-07-29T04:18:53;20.70;76.20
41630;DHT22;27322;49.488;8.480;2022-07-29T04:21:19;20.80;75.90
41630;DHT22;27322;49.488;8.480;2022-07-29T04:23:44;20.80;75.70
41630;DHT22;27322;49.488;8.480;2022-07-29T04:26:14;20.80;75.70
41630;DHT22;27322;49.488;8.480;2022-07-29T04:28:39;20.80;76.50
41630;DHT22;27322;49.488;8.480;2022-07-29T04:31:07;20.80;76.80
41630;DHT22;27322;49.488;8.480;2022-07-29T04:33:33;20.80;76.70
41630;DHT22;27322;49.488;8.480;2022-07-29T04:35:58;20.90;76.70
41630;DHT22;27322;49.488;8.480;2022-07-29T04:38:24;21.00;76.80
41630;DHT22;27322;49.488;8.480;2022-07-29T04:40:49;21.00;77.00
41630;DHT22;27322;49.488;8.480;2022-07-29T04:43:15;21.00;77.20
41630;DHT22;27322;49.488;8.480;2022-07-29T04:45:41;21.00;77.50
41630;DHT22;27322;49.488;8.480;2022-07-29T04:48:07;21.00;77.70
41630;DHT22;27322;49.488;8.480;2022-07-29T04:50:33;21.00;77.90
41630;DHT22;27322;49.488;8.480;2022-07-29T04:52:58;21.00;78.30
41630;DHT22;27322;49.488;8.480;2022-07-29T04:55:24;20.90;78.50
41630;DHT22;27322;49.488;8.480;2022-07-29T04:57:50;20.80;79.30
41630;DHT22;27322;49.488;8.480;2022-07-29T05:00:16;20.80;80.40
41630;DHT22;27322;49.488;8.480;2022-07-29T05:02:42;20.90;80.10
41630;DHT22;27322;49.488;8.480;2022-07-29T05:05:08;20.90;80.20
41630;DHT22;27322;49.488;8.480;2022-07-29T05:07:33;21.00;80.70
41630;DHT22;27322;49.488;8.480;2022-07-29T05:09:59;20.90;81.30
41630;DHT22;27322;49.488;8.480;2022-07-29T05:12:25;20.90;81.70
41630;DHT22;27322;49.488;8.480;2022-07-29T05:14:51;20.90;82.40
41630;DHT22;27322;49.488;8.480;2022-07-29T05:17:17;20.90;83.00
41630;DHT22;27322;49.488;8.480;2022-07-29T05:19:43;21.00;83.20
41630;DHT22;27322;49.488;8.480;2022-07-29T05:22:08;21.00;83.50
41630;DHT22;27322;49.488;8.480;2022-07-29T05:24:34;21.10;83.90
41630;DHT22;27322;49.488;8.480;2022-07-29T05:27:00;21.10;84.00
41630;DHT22;27322;49.488;8.480;2022-07-29T05:29:25;21.10;84.30
41630;DHT22;27322;49.488;8.480;2022-07-29T05:31:51;21.10;85.20
41630;DHT22;27322;49.488;8.480;2022-07-29T05:34:18;21.10;84.90
41630;DHT22;27322;49.488;8.480;2022-07-29T05:36:44;21.20;85.60
41630;DHT22;27322;49.488;8.480;2022-07-29T05:39:10;21.30;85.80
41630;DHT22;27322;49.488;8.480;2022-07-29T05:41:36;21.30;85.80
41630;DHT22;27322;49.488;8.480;2022-07-29T05:44:02;21.40;85.60
41630;DHT22;27322;49.488;8.480;2022-07-29T05:46:27;21.50;85.00
41630;DHT22;27322;49.488;8.480;2022-07-29T05:48:53;21.60;84.10
41630;DHT22;27322;49.488;8.480;2022-07-29T05:51:19;21.60;83.80
41630;DHT22;27322;49.488;8.480;2022-07-29T05:53:45;21.70;83.80
41630;DHT22;27322;49.488;8.480;2022-07-29T05:56:10;21.70;83.30
41630;DHT22;27322;49.488;8.480;2022-07-29T05:58:36;21.80;82.70
41630;DHT22;27322;49.488;8.480;2022-07-29T06:01:02;21.90;83.60
41630;DHT22;27322;49.488;8.480;2022-07-29T06:03:28;22.00;82.70
41630;DHT22;27322;49.488;8.480;2022-07-29T06:05:54;22.10;81.60
41630;DHT22;27322;49.488;8.480;2022-07-29T06:08:20;22.10;82.30
41630;DHT22;27322;49.488;8.480;2022-07-29T06:10:45;22.20;82.90
41630;DHT22;27322;49.488;8.480;2022-07-29T06:13:11;22.30;83.10
41630;DHT22;27322;49.488;8.480;2022-07-29T06:15:37;22.40;83.00
41630;DHT22;27322;49.488;8.480;2022-07-29T06:18:03;22.50;83.50
41630;DHT22;27322;49.488;8.480;2022-07-29T06:20:30;22.60;82.30
41630;DHT22;27322;49.488;8.480;2022-07-29T06:22:56;22.60;82.20
41630;DHT22;27322;49.488;8.480;2022-07-29T06:25:22;22.70;82.10
41630;DHT22;27322;49.488;8.480;2022-07-29T06:27:48;22.80;82.20
41630;DHT22;27322;49.488;8.480;2022-07-29T06:30:13;22.80;82.30
41630;DHT22;27322;49.488;8.480;2022-07-29T06:32:39;22.90;82.20
41630;DHT22;27322;49.488;8.480;2022-07-29T06:35:05;22.90;82.00
41630;DHT22;27322;49.488;8.480;2022-07-29T06:37:31;23.00;81.70
41630;DHT22;27322;49.488;8.480;2022-07-29T06:39:57;23.00;80.90
41630;DHT22;27322;49.488;8.480;2022-07-29T06:42:44;23.10;80.80
41630;DHT22;27322;49.488;8.480;2022-07-29T06:45:10;23.20;80.60
41630;DHT22;27322;49.488;8.480;2022-07-29T06:47:36;23.20;80.50
41630;DHT22;27322;49.488;8.480;2022-07-29T06:50:03;23.20;80.10
41630;DHT22;27322;49.488;8.480;2022-07-29T06:52:28;23.30;80.30
41630;DHT22;27322;49.488;8.480;2022-07-29T06:54:54;23.40;80.30
41630;DHT22;27322;49.488;8.480;2022-07-29T06:57:21;23.50;80.30
41630;DHT22;27322;49.488;8.480;2022-07-29T06:59:46;23.60;80.10
41630;DHT22;27322;49.488;8.480;2022-07-29T07:02:12;23.60;79.80
41630;DHT22;27322;49.488;8.480;2022-07-29T07:04:38;23.70;79.70
41630;DHT22;27322;49.488;8.480;2022-07-29T07:07:04;23.70;79.60
41630;DHT22;27322;49.488;8.480;2022-07-29T07:09:30;23.90;80.70
41630;DHT22;27322;49.488;8.480;2022-07-29T07:11:55;23.90;80.10
41630;DHT22;27322;49.488;8.480;2022-07-29T07:14:21;24.00;79.60
41630;DHT22;27322;49.488;8.480;2022-07-29T07:16:47;24.10;79.30
41630;DHT22;27322;49.488;8.480;2022-07-29T07:19:12;24.10;79.50
41630;DHT22;27322;49.488;8.480;2022-07-29T07:21:38;24.10;79.30
41630;DHT22;27322;49.488;8.480;2022-07-29T07:24:04;24.10;79.40
41630;DHT22;27322;49.488;8.480;2022-07-29T07:26:30;24.10;80.10
41630;DHT22;27322;49.488;8.480;2022-07-29T07:28:56;24.10;80.00
41630;DHT22;27322;49.488;8.480;2022-07-29T07:31:25;24.10;80.00
41630;DHT22;27322;49.488;8.480;2022-07-29T07:33:51;24.30;80.00
41630;DHT22;27322;49.488;8.480;2022-07-29T07:36:19;24.40;79.80
41630;DHT22;27322;49.488;8.480;2022-07-29T07:38:44;24.50;79.70
41630;DHT22;27322;49.488;8.480;2022-07-29T07:41:10;24.60;79.60
41630;DHT22;27322;49.488;8.480;2022-07-29T07:43:36;24.60;79.20
41630;DHT22;27322;49.488;8.480;2022-07-29T07:46:02;24.60;79.20
41630;DHT22;27322;49.488;8.480;2022-07-29T07:48:27;24.50;79.40
41630;DHT22;27322;49.488;8.480;2022-07-29T07:50:53;24.40;79.90
41630;DHT22;27322;49.488;8.480;2022-07-29T07:53:19;24.40;80.70
41630;DHT22;27322;49.488;8.480;2022-07-29T07:55:44;24.30;80.80
41630;DHT22;27322;49.488;8.480;2022-07-29T07:58:10;24.30;80.90
41630;DHT22;27322;49.488;8.480;2022-07-29T08:00:36;24.30;81.00
41630;DHT22;27322;49.488;8.480;2022-07-29T08:03:02;24.30;81.30
41630;DHT22;27322;49.488;8.480;2022-07-29T08:05:27;24.30;82.20
41630;DHT22;27322;49.488;8.480;2022-07-29T08:07:53;24.30;82.00
41630;DHT22;27322;49.488;8.480;2022-07-29T08:10:19;24.30;82.90
41630;DHT22;27322;49.488;8.480;2022-07-29T08:13:05;24.30;82.30
41630;DHT22;27322;49.488;8.480;2022-07-29T08:15:31;24.30;82.30
41630;DHT22;27322;49.488;8.480;2022-07-29T08:17:57;24.30;82.70
41630;DHT22;27322;49.488;8.480;2022-07-29T08:20:23;24.30;82.80
41630;DHT22;27322;49.488;8.480;2022-07-29T08:22:49;24.30;82.40
41630;DHT22;27322;49.488;8.480;2022-07-29T08:25:15;24.30;82.30
41630;DHT22;27322;49.488;8.480;2022-07-29T08:27:41;24.30;82.80
41630;DHT22;27322;49.488;8.480;2022-07-29T08:30:07;24.30;82.70
41630;DHT22;27322;49.488;8.480;2022-07-29T08:32:33;24.40;82.40
41630;DHT22;27322;49.488;8.480;2022-07-29T08:34:58;24.50;81.60
41630;DHT22;27322;49.488;8.480;2022-07-29T08:37:25;24.50;81.80
41630;DHT22;27322;49.488;8.480;2022-07-29T08:39:51;24.60;81.70
41630;DHT22;27322;49.488;8.480;2022-07-29T08:42:17;24.70;81.30
41630;DHT22;27322;49.488;8.480;2022-07-29T08:44:42;24.80;80.80
41630;DHT22;27322;49.488;8.480;2022-07-29T08:47:08;24.90;80.80
41630;DHT22;27322;49.488;8.480;2022-07-29T08:49:35;25.00;80.80
41630;DHT22;27322;49.488;8.480;2022-07-29T08:52:01;25.10;80.90
41630;DHT22;27322;49.488;8.480;2022-07-29T08:54:28;25.10;80.50
41630;DHT22;27322;49.488;8.480;2022-07-29T08:56:54;25.20;80.30
41630;DHT22;27322;49.488;8.480;2022-07-29T08:59:22;25.30;80.10
41630;DHT22;27322;49.488;8.480;2022-07-29T09:01:52;25.40;79.80
41630;DHT22;27322;49.488;8.480;2022-07-29T09:04:19;25.40;79.80
41630;DHT22;27322;49.488;8.480;2022-07-29T09:06:51;25.40;79.60
41630;DHT22;27322;49.488;8.480;2022-07-29T09:09:17;25.40;79.90
41630;DHT22;27322;49.488;8.480;2022-07-29T09:11:43;25.30;80.20
41630;DHT22;27322;49.488;8.480;2022-07-29T09:14:12;25.30;80.80
41630;DHT22;27322;49.488;8.480;2022-07-29T09:17:04;25.30;80.80
41630;DHT22;27322;49.488;8.480;2022-07-29T09:19:32;25.30;80.30
41630;DHT22;27322;49.488;8.480;2022-07-29T09:22:05;25.40;80.00
41630;DHT22;27322;49.488;8.480;2022-07-29T09:24:47;25.40;79.90
41630;DHT22;27322;49.488;8.480;2022-07-29T09:29:45;25.50;80.00
41630;DHT22;27322;49.488;8.480;2022-07-29T09:32:11;25.60;79.20
41630;DHT22;27322;49.488;8.480;2022-07-29T09:34:37;25.60;78.50
41630;DHT22;27322;49.488;8.480;2022-07-29T09:37:03;25.70;78.10
41630;DHT22;27322;49.488;8.480;2022-07-29T09:39:37;25.80;77.80
41630;DHT22;27322;49.488;8.480;2022-07-29T09:42:05;25.90;77.20
41630;DHT22;27322;49.488;8.480;2022-07-29T09:44:48;25.90;77.30
41630;DHT22;27322;49.488;8.480;2022-07-29T09:47:15;26.00;76.30
41630;DHT22;27322;49.488;8.480;2022-07-29T09:52:16;26.10;76.00
41630;DHT22;27322;49.488;8.480;2022-07-29T09:54:41;26.20;76.30
41630;DHT22;27322;49.488;8.480;2022-07-29T09:57:09;26.10;76.70
41630;DHT22;27322;49.488;8.480;2022-07-29T09:59:58;26.00;76.10
41630;DHT22;27322;49.488;8.480;2022-07-29T10:02:28;26.00;76.30
41630;DHT22;27322;49.488;8.480;2022-07-29T10:04:55;25.80;76.70
41630;DHT22;27322;49.488;8.480;2022-07-29T10:07:21;25.80;77.00
41630;DHT22;27322;49.488;8.480;2022-07-29T10:09:54;26.00;75.90
41630;DHT22;27322;49.488;8.480;2022-07-29T10:12:21;26.10;75.70
41630;DHT22;27322;49.488;8.480;2022-07-29T10:14:47;26.30;74.80
41630;DHT22;27322;49.488;8.480;2022-07-29T10:17:13;26.40;73.80
41630;DHT22;27322;49.488;8.480;2022-07-29T10:19:40;26.60;73.80
41630;DHT22;27322;49.488;8.480;2022-07-29T10:22:09;26.70;72.90
41630;DHT22;27322;49.488;8.480;2022-07-29T10:24:36;26.80;73.60
41630;DHT22;27322;49.488;8.480;2022-07-29T10:27:04;26.90;73.30
41630;DHT22;27322;49.488;8.480;2022-07-29T10:29:31;26.90;72.80
41630;DHT22;27322;49.488;8.480;2022-07-29T10:35:24;27.20;72.30
41630;DHT22;27322;49.488;8.480;2022-07-29T10:40:46;27.30;70.70
41630;DHT22;27322;49.488;8.480;2022-07-29T10:43:37;27.30;70.30
41630;DHT22;27322;49.488;8.480;2022-07-29T10:46:06;27.20;70.30
41630;DHT22;27322;49.488;8.480;2022-07-29T10:48:32;27.10;70.70
41630;DHT22;27322;49.488;8.480;2022-07-29T10:50:59;27.10;70.70
41630;DHT22;27322;49.488;8.480;2022-07-29T10:53:49;27.10;70.60
41630;DHT22;27322;49.488;8.480;2022-07-29T10:56:28;27.30;70.60
41630;DHT22;27322;49.488;8.480;2022-07-29T11:01:52;27.90;68.10
41630;DHT22;27322;49.488;8.480;2022-07-29T11:07:09;28.20;68.00
41630;DHT22;27322;49.488;8.480;2022-07-29T11:09:35;28.20;67.40
41630;DHT22;27322;49.488;8.480;2022-07-29T11:12:01;28.20;67.50
41630;DHT22;27322;49.488;8.480;2022-07-29T11:17:17;28.20;66.90
41630;DHT22;27322;49.488;8.480;2022-07-29T11:19:43;28.30;66.60
41630;DHT22;27322;49.488;8.480;2022-07-29T11:22:10;28.30;67.00
41630;DHT22;27322;49.488;8.480;2022-07-29T11:24:37;28.30;66.40
41630;DHT22;27322;49.488;8.480;2022-07-29T11:29:58;28.60;65.50
41630;DHT22;27322;49.488;8.480;2022-07-29T11:32:36;28.70;65.50
41630;DHT22;27322;49.488;8.480;2022-07-29T11:35:22;28.90;65.30
41630;DHT22;27322;49.488;8.480;2022-07-29T11:38:23;29.10;63.30
41630;DHT22;27322;49.488;8.480;2022-07-29T11:41:24;29.20;63.40
41630;DHT22;27322;49.488;8.480;2022-07-29T11:43:55;29.40;62.70
41630;DHT22;27322;49.488;8.480;2022-07-29T11:49:09;29.60;62.00
41630;DHT22;27322;49.488;8.480;2022-07-29T11:51:38;29.50;61.80
41630;DHT22;27322;49.488;8.480;2022-07-29T11:54:05;29.30;61.60
41630;DHT22;27322;49.488;8.480;2022-07-29T11:56:34;29.00;62.20
41630;DHT22;27322;49.488;8.480;2022-07-29T11:59:07;28.70;62.70
41630;DHT22;27322;49.488;8.480;2022-07-29T12:01:35;28.50;62.50
41630;DHT22;27322;49.488;8.480;2022-07-29T12:04:04;28.30;63.00
41630;DHT22;27322;49.488;8.480;2022-07-29T12:06:31;28.20;63.60
41630;DHT22;27322;49.488;8.480;2022-07-29T12:08:57;28.20;64.00
41630;DHT22;27322;49.488;8.480;2022-07-29T12:11:22;28.30;63.70
41630;DHT22;27322;49.488;8.480;2022-07-29T12:13:49;28.50;63.30
41630;DHT22;27322;49.488;8.480;2022-07-29T12:16:15;28.60;62.30
41630;DHT22;27322;49.488;8.480;2022-07-29T12:18:41;28.60;62.60
41630;DHT22;27322;49.488;8.480;2022-07-29T12:21:07;28.60;62.30
41630;DHT22;27322;49.488;8.480;2022-07-29T12:23:34;28.60;62.30
41630;DHT22;27322;49.488;8.480;2022-07-29T12:25:59;28.60;62.70
41630;DHT22;27322;49.488;8.480;2022-07-29T12:28:25;28.60;61.60
41630;DHT22;27322;49.488;8.480;2022-07-29T12:30:52;28.60;61.00
41630;DHT22;27322;49.488;8.480;2022-07-29T12:35:45;28.80;60.50
41630;DHT22;27322;49.488;8.480;2022-07-29T12:38:12;28.80;59.60
41630;DHT22;27322;49.488;8.480;2022-07-29T12:40:38;28.80;59.20
41630;DHT22;27322;49.488;8.480;2022-07-29T12:45:31;28.70;60.90
41630;DHT22;27322;49.488;8.480;2022-07-29T12:47:57;28.60;59.20
41630;DHT22;27322;49.488;8.480;2022-07-29T12:50:23;28.60;59.60
41630;DHT22;27322;49.488;8.480;2022-07-29T12:52:49;28.70;59.20
41630;DHT22;27322;49.488;8.480;2022-07-29T12:55:15;28.70;58.70
41630;DHT22;27322;49.488;8.480;2022-07-29T12:57:47;28.70;59.00
41630;DHT22;27322;49.488;8.480;2022-07-29T13:00:14;28.80;59.60
41630;DHT22;27322;49.488;8.480;2022-07-29T13:02:41;28.80;60.20
41630;DHT22;27322;49.488;8.480;2022-07-29T13:05:08;28.80;60.10
41630;DHT22;27322;49.488;8.480;2022-07-29T13:07:35;28.80;58.90
41630;DHT22;27322;49.488;8.480;2022-07-29T13:10:17;28.70;57.90
41630;DHT22;27322;49.488;8.480;2022-07-29T13:13:09;28.70;58.30
41630;DHT22;27322;49.488;8.480;2022-07-29T13:15:40;28.70;59.00
41630;DHT22;27322;49.488;8.480;2022-07-29T13:18:28;28.60;58.80
41630;DHT22;27322;49.488;8.480;2022-07-29T13:20:54;28.60;58.90
41630;DHT22;27322;49.488;8.480;2022-07-29T13:23:20;28.60;57.80
41630;DHT22;27322;49.488;8.480;2022-07-29T13:25:45;28.70;57.90
41630;DHT22;27322;49.488;8.480;2022-07-29T13:28:11;28.70;57.30
41630;DHT22;27322;49.488;8.480;2022-07-29T13:30:37;28.80;57.40
41630;DHT22;27322;49.488;8.480;2022-07-29T13:33:04;28.90;58.00
41630;DHT22;27322;49.488;8.480;2022-07-29T13:35:30;28.80;58.60
41630;DHT22;27322;49.488;8.480;2022-07-29T13:37:56;28.80;58.90
41630;DHT22;27322;49.488;8.480;2022-07-29T13:40:21;28.70;58.40
41630;DHT22;27322;49.488;8.480;2022-07-29T13:42:47;28.70;58.80
41630;DHT22;27322;49.488;8.480;2022-07-29T13:45:13;28.60;59.20
41630;DHT22;27322;49.488;8.480;2022-07-29T13:47:39;28.50;59.20
41630;DHT22;27322;49.488;8.480;2022-07-29T13:50:06;28.60;59.30
41630;DHT22;27322;49.488;8.480;2022-07-29T13:52:33;28.60;58.90
41630;DHT22;27322;49.488;8.480;2022-07-29T13:54:58;28.70;58.50
41630;DHT22;27322;49.488;8.480;2022-07-29T13:57:24;28.80;58.40
41630;DHT22;27322;49.488;8.480;2022-07-29T13:59:50;28.90;57.90
41630;DHT22;27322;49.488;8.480;2022-07-29T14:02:16;29.00;57.20
41630;DHT22;27322;49.488;8.480;2022-07-29T14:04:42;29.20;57.50
41630;DHT22;27322;49.488;8.480;2022-07-29T14:07:07;29.30;57.10
41630;DHT22;27322;49.488;8.480;2022-07-29T14:09:33;29.30;56.00
41630;DHT22;27322;49.488;8.480;2022-07-29T14:11:59;29.30;55.60
41630;DHT22;27322;49.488;8.480;2022-07-29T14:14:25;29.30;55.30
41630;DHT22;27322;49.488;8.480;2022-07-29T14:16:50;29.30;55.00
41630;DHT22;27322;49.488;8.480;2022-07-29T14:19:16;29.40;54.90
41630;DHT22;27322;49.488;8.480;2022-07-29T14:21:42;29.50;55.40
41630;DHT22;27322;49.488;8.480;2022-07-29T14:24:07;29.60;55.30
41630;DHT22;27322;49.488;8.480;2022-07-29T14:26:33;29.60;55.20
41630;DHT22;27322;49.488;8.480;2022-07-29T14:28:59;29.60;55.40
41630;DHT22;27322;49.488;8.480;2022-07-29T14:31:24;29.60;55.60
41630;DHT22;27322;49.488;8.480;2022-07-29T14:33:50;29.70;55.10
41630;DHT22;27322;49.488;8.480;2022-07-29T14:36:15;29.80;55.10
41630;DHT22;27322;49.488;8.480;2022-07-29T14:38:41;30.00;53.40
41630;DHT22;27322;49.488;8.480;2022-07-29T14:41:07;30.40;52.50
41630;DHT22;27322;49.488;8.480;2022-07-29T14:43:34;30.70;51.00
41630;DHT22;27322;49.488;8.480;2022-07-29T14:46:00;31.20;51.00
41630;DHT22;27322;49.488;8.480;2022-07-29T14:48:26;32.10;50.20
41630;DHT22;27322;49.488;8.480;2022-07-29T14:50:52;32.90;48.40
41630;DHT22;27322;49.488;8.480;2022-07-29T14:53:18;33.20;47.40
41630;DHT22;27322;49.488;8.480;2022-07-29T14:55:43;33.20;48.10
41630;DHT22;27322;49.488;8.480;2022-07-29T14:58:09;33.00;48.20
41630;DHT22;27322;49.488;8.480;2022-07-29T15:00:35;32.70;48.10
41630;DHT22;27322;49.488;8.480;2022-07-29T15:03:02;32.40;48.60
41630;DHT22;27322;49.488;8.480;2022-07-29T15:05:28;31.90;48.90
41630;DHT22;27322;49.488;8.480;2022-07-29T15:07:54;31.50;49.70
41630;DHT22;27322;49.488;8.480;2022-07-29T15:10:20;31.10;50.90
41630;DHT22;27322;49.488;8.480;2022-07-29T15:12:46;30.80;50.30
41630;DHT22;27322;49.488;8.480;2022-07-29T15:15:12;30.50;50.90
41630;DHT22;27322;49.488;8.480;2022-07-29T15:17:37;30.20;51.10
41630;DHT22;27322;49.488;8.480;2022-07-29T15:20:03;30.00;51.70
41630;DHT22;27322;49.488;8.480;2022-07-29T15:22:29;29.80;51.70
41630;DHT22;27322;49.488;8.480;2022-07-29T15:24:55;29.60;51.90
41630;DHT22;27322;49.488;8.480;2022-07-29T15:27:21;29.50;52.20
41630;DHT22;27322;49.488;8.480;2022-07-29T15:29:47;29.50;52.00
41630;DHT22;27322;49.488;8.480;2022-07-29T15:32:13;29.40;51.80
41630;DHT22;27322;49.488;8.480;2022-07-29T15:34:39;29.30;52.20
41630;DHT22;27322;49.488;8.480;2022-07-29T15:37:05;29.30;52.10
41630;DHT22;27322;49.488;8.480;2022-07-29T15:39:31;29.10;51.90
41630;DHT22;27322;49.488;8.480;2022-07-29T15:41:56;29.10;52.20
41630;DHT22;27322;49.488;8.480;2022-07-29T15:44:24;29.00;52.90
41630;DHT22;27322;49.488;8.480;2022-07-29T15:46:50;28.90;52.50
41630;DHT22;27322;49.488;8.480;2022-07-29T15:49:35;28.80;52.60
41630;DHT22;27322;49.488;8.480;2022-07-29T15:52:03;28.70;53.10
41630;DHT22;27322;49.488;8.480;2022-07-29T15:54:32;28.70;52.30
41630;DHT22;27322;49.488;8.480;2022-07-29T15:56:58;28.70;52.60
41630;DHT22;27322;49.488;8.480;2022-07-29T15:59:24;28.70;52.50
41630;DHT22;27322;49.488;8.480;2022-07-29T16:01:50;28.80;52.30
41630;DHT22;27322;49.488;8.480;2022-07-29T16:04:16;28.90;52.20
41630;DHT22;27322;49.488;8.480;2022-07-29T16:06:43;28.90;53.10
41630;DHT22;27322;49.488;8.480;2022-07-29T16:09:09;29.00;53.80
41630;DHT22;27322;49.488;8.480;2022-07-29T16:11:35;29.00;54.10
41630;DHT22;27322;49.488;8.480;2022-07-29T16:14:01;29.00;54.70
41630;DHT22;27322;49.488;8.480;2022-07-29T16:16:27;28.90;51.60
41630;DHT22;27322;49.488;8.480;2022-07-29T16:18:52;29.00;50.80
41630;DHT22;27322;49.488;8.480;2022-07-29T16:21:18;29.00;50.30